createdAt,value
2023-04-04T00:02:08.532Z,7.20
2023-04-04T00:06:12.139Z,6.90
2023-04-04T00:10:15.937Z,11.30
2023-04-04T00:14:19.423Z,4.50
2023-04-04T00:18:22.348Z,6.10
2023-04-04T00:22:26.064Z,4.50
2023-04-04T00:26:29.140Z,4.40
2023-04-04T00:30:32.169Z,5.70
2023-04-04T00:34:36.478Z,6.40
2023-04-04T00:38:39.454Z,7.90
2023-04-04T00:42:42.637Z,6.70
2023-04-04T00:46:46.040Z,5.10
2023-04-04T00:50:49.158Z,6.30
2023-04-04T00:54:52.044Z,11.70
2023-04-04T00:58:56.307Z,5.10
2023-04-04T01:02:59.395Z,5.20
2023-04-04T01:07:03.130Z,5.40
2023-04-04T01:11:06.690Z,5.90
2023-04-04T01:15:09.856Z,5.90
2023-04-04T01:19:22.024Z,3.00
2023-04-04T01:23:32.679Z,5.60
2023-04-04T01:27:36.034Z,6.20
2023-04-04T01:32:00.947Z,5.00
2023-04-04T01:36:03.826Z,8.00
2023-04-04T01:40:21.665Z,4.90
2023-04-04T01:44:25.320Z,7.00
2023-04-04T01:48:28.341Z,4.50
2023-04-04T01:52:31.382Z,6.90
2023-04-04T01:56:35.637Z,5.40
2023-04-04T02:00:38.540Z,4.80
2023-04-04T02:04:41.547Z,7.50
2023-04-04T02:08:44.471Z,7.00
2023-04-04T02:12:47.595Z,9.50
2023-04-04T02:16:51.724Z,6.10
2023-04-04T02:21:17.522Z,6.40
2023-04-04T02:25:22.328Z,16.10
2023-04-04T02:29:26.012Z,5.60
2023-04-04T02:33:29.897Z,8.40
2023-04-04T02:37:32.783Z,8.50
2023-04-04T02:41:35.746Z,6.20
2023-04-04T02:45:38.671Z,12.30
2023-04-04T02:49:41.679Z,11.40
2023-04-04T02:53:45.188Z,9.60
2023-04-04T02:57:52.479Z,11.50
2023-04-04T03:01:56.139Z,11.20
2023-04-04T03:06:00.326Z,9.20
2023-04-04T03:10:03.998Z,8.30
2023-04-04T03:14:07.680Z,7.10
2023-04-04T03:18:10.917Z,13.80
2023-04-04T03:22:13.860Z,11.50
2023-04-04T03:26:17.377Z,10.00
2023-04-04T03:30:21.040Z,15.00
2023-04-04T03:34:24.864Z,12.60
2023-04-04T03:38:27.856Z,10.50
2023-04-04T03:42:34.959Z,14.10
2023-04-04T03:46:38.179Z,6.60
2023-04-04T03:50:41.850Z,8.30
2023-04-04T03:54:46.174Z,13.10
2023-04-04T03:58:49.758Z,14.00
2023-04-04T04:02:53.843Z,13.10
2023-04-04T04:06:57.606Z,10.80
2023-04-04T04:11:08.021Z,10.30
2023-04-04T04:15:12.219Z,12.20
2023-04-04T04:19:16.223Z,10.20
2023-04-04T04:23:19.312Z,11.70
2023-04-04T04:27:25.917Z,12.80
2023-04-04T04:31:31.329Z,13.10
2023-04-04T04:35:40.341Z,8.90
2023-04-04T04:39:45.694Z,13.30
2023-04-04T04:43:49.146Z,13.70
2023-04-04T04:47:52.962Z,10.10
2023-04-04T04:51:56.293Z,7.80
2023-04-04T04:56:00.238Z,8.90
2023-04-04T05:00:04.764Z,13.50
2023-04-04T05:04:09.171Z,13.20
2023-04-04T05:08:13.520Z,10.80
2023-04-04T05:12:16.603Z,16.80
2023-04-04T05:16:20.690Z,11.30
2023-04-04T05:20:24.422Z,15.00
2023-04-04T05:24:28.686Z,10.50
2023-04-04T05:28:31.871Z,13.70
2023-04-04T05:32:35.639Z,8.80
2023-04-04T05:36:39.269Z,15.40
2023-04-04T05:40:43.155Z,13.80
2023-04-04T05:44:46.462Z,6.60
2023-04-04T05:48:52.867Z,9.10
2023-04-04T05:52:56.120Z,11.20
2023-04-04T05:56:59.164Z,11.00
2023-04-04T06:01:07.114Z,14.10
2023-04-04T06:05:10.565Z,16.50
2023-04-04T06:09:13.623Z,8.40
2023-04-04T06:13:16.823Z,8.00
2023-04-04T06:17:20.235Z,4.90
2023-04-04T06:21:23.543Z,8.80
2023-04-04T06:25:27.234Z,13.30
2023-04-04T06:29:31.441Z,6.60
2023-04-04T06:33:34.437Z,7.80
2023-04-04T06:37:37.427Z,9.60
2023-04-04T06:41:40.706Z,12.40
2023-04-04T06:45:44.314Z,5.70
2023-04-04T06:49:47.501Z,5.90
2023-04-04T06:53:50.924Z,7.70
2023-04-04T06:57:54.433Z,9.70
2023-04-04T07:01:58.134Z,5.40
2023-04-04T07:06:05.610Z,5.20
2023-04-04T07:10:09.506Z,9.90
2023-04-04T07:14:12.746Z,4.50
2023-04-04T07:18:16.693Z,5.60
2023-04-04T07:22:20.389Z,5.10
2023-04-04T07:26:23.442Z,5.80
2023-04-04T07:30:29.130Z,6.60
2023-04-04T07:34:32.872Z,5.30
2023-04-04T07:38:36.328Z,5.30
2023-04-04T07:42:47.420Z,4.20
2023-04-04T07:47:02.395Z,3.10
2023-04-04T07:51:10.361Z,3.20
2023-04-04T07:55:15.006Z,5.70
2023-04-04T07:59:21.610Z,3.20
2023-04-04T08:03:25.860Z,2.60
2023-04-04T08:07:30.418Z,2.10
2023-04-04T08:11:33.565Z,2.20
2023-04-04T08:15:37.911Z,2.10
2023-04-04T08:19:41.477Z,1.90
2023-04-04T08:23:44.394Z,6.50
2023-04-04T08:27:48.142Z,3.40
2023-04-04T08:31:54.121Z,2.10
2023-04-04T08:35:59.810Z,2.40
2023-04-04T08:40:06.846Z,4.20
2023-04-04T08:44:17.315Z,3.50
2023-04-04T08:48:24.133Z,2.70
2023-04-04T08:56:33.312Z,3.70
2023-04-04T09:00:40.682Z,1.20
2023-04-04T09:04:54.598Z,3.00
2023-04-04T09:09:07.488Z,8.20
2023-04-04T09:13:16.091Z,3.60
2023-04-04T09:17:21.044Z,2.90
2023-04-04T09:21:24.252Z,1.80
2023-04-04T09:25:27.578Z,3.00
2023-04-04T09:29:30.761Z,2.50
2023-04-04T09:33:34.811Z,1.50
2023-04-04T09:37:40.459Z,1.90
2023-04-04T09:41:47.724Z,6.00
2023-04-04T09:50:00.594Z,2.40
2023-04-04T09:54:04.287Z,2.20
2023-04-04T09:58:24.607Z,4.20
2023-04-04T10:02:30.916Z,4.80
2023-04-04T10:06:37.535Z,4.20
2023-04-04T10:11:09.840Z,4.20
2023-04-04T10:15:16.994Z,2.90
2023-04-04T10:19:20.648Z,2.40
2023-04-04T10:23:26.678Z,2.60
2023-04-04T10:27:30.223Z,5.00
2023-04-04T10:31:38.418Z,2.60
2023-04-04T10:35:45.426Z,4.90
2023-04-04T10:40:20.808Z,3.30
2023-04-04T10:44:25.687Z,4.90
2023-04-04T10:48:29.685Z,1.90
2023-04-04T10:52:33.926Z,6.90
2023-04-04T10:56:37.842Z,3.80
2023-04-04T11:00:55.370Z,5.00
2023-04-04T11:05:11.853Z,3.70
2023-04-04T11:09:15.397Z,5.40
2023-04-04T11:13:22.872Z,2.00
2023-04-04T11:18:04.283Z,7.90
2023-04-04T11:22:16.072Z,6.60
2023-04-04T11:26:35.719Z,3.70
2023-04-04T11:30:48.049Z,5.00
2023-04-04T11:34:51.976Z,7.80
2023-04-04T11:38:58.699Z,9.80
2023-04-04T11:43:08.237Z,4.80
2023-04-04T11:47:13.636Z,4.40
2023-04-04T11:51:18.940Z,9.40
2023-04-04T11:55:23.137Z,5.80
2023-04-04T11:59:26.606Z,3.30
2023-04-04T12:03:30.208Z,5.20
2023-04-04T12:07:35.705Z,5.40
2023-04-04T12:11:39.865Z,5.00
2023-04-04T12:15:44.159Z,5.90
2023-04-04T12:19:47.721Z,6.10
2023-04-04T12:23:51.092Z,2.10
2023-04-04T12:27:55.363Z,7.30
2023-04-04T12:31:58.930Z,5.40
2023-04-04T12:36:06.754Z,3.30
2023-04-04T12:40:11.338Z,4.00
2023-04-04T12:44:36.076Z,5.80
2023-04-04T12:48:40.099Z,5.00
2023-04-04T12:52:43.017Z,4.20
2023-04-04T12:56:46.756Z,5.60
2023-04-04T13:00:55.298Z,4.80
2023-04-04T13:04:58.892Z,6.10
2023-04-04T13:09:01.836Z,7.50
2023-04-04T13:13:05.998Z,4.40
2023-04-04T13:17:09.581Z,7.40
2023-04-04T13:21:13.301Z,5.80
2023-04-04T13:25:16.276Z,3.90
2023-04-04T13:29:19.425Z,4.80
2023-04-04T13:33:22.503Z,3.00
2023-04-04T13:37:26.676Z,2.60
2023-04-04T13:41:30.014Z,3.10
2023-04-04T13:45:34.420Z,4.10
2023-04-04T13:49:37.469Z,4.30
2023-04-04T13:53:41.598Z,4.90
2023-04-04T13:57:44.823Z,6.20
2023-04-04T14:01:47.781Z,3.80
2023-04-04T14:05:50.976Z,4.90
2023-04-04T14:09:54.189Z,3.20
2023-04-04T14:13:58.046Z,5.10
2023-04-04T14:18:01.280Z,4.60
2023-04-04T14:22:05.225Z,3.60
2023-04-04T14:26:08.883Z,5.00
2023-04-04T14:30:12.565Z,4.00
2023-04-04T14:34:15.581Z,10.30
2023-04-04T14:38:19.081Z,5.70
2023-04-04T14:42:22.183Z,4.70
2023-04-04T14:46:26.241Z,6.70
2023-04-04T14:50:29.393Z,3.40
2023-04-04T14:54:32.616Z,3.10
2023-04-04T14:58:36.112Z,7.40
2023-04-04T15:02:39.297Z,4.70
2023-04-04T15:06:43.390Z,5.40
2023-04-04T15:10:46.561Z,8.30
2023-04-04T15:14:49.556Z,8.70
2023-04-04T15:18:52.558Z,6.30
2023-04-04T15:22:55.794Z,4.50
2023-04-04T15:26:58.813Z,5.20
2023-04-04T15:31:03.126Z,5.70
2023-04-04T15:35:07.361Z,5.20
2023-04-04T15:39:11.413Z,4.60
2023-04-04T15:43:14.774Z,3.90
2023-04-04T15:47:18.089Z,5.90
2023-04-04T15:51:21.522Z,3.90
2023-04-04T15:55:24.601Z,11.60
2023-04-04T15:59:27.817Z,11.10
2023-04-04T16:03:30.917Z,6.70
2023-04-04T16:07:34.286Z,9.90
2023-04-04T16:11:38.030Z,3.40
2023-04-04T16:15:41.255Z,4.00
2023-04-04T16:19:44.274Z,5.10
2023-04-04T16:23:47.473Z,5.00
2023-04-04T16:27:50.629Z,6.00
2023-04-04T16:31:53.611Z,5.70
2023-04-04T16:35:58.241Z,4.70
2023-04-04T16:40:02.155Z,3.80
2023-04-04T16:44:05.603Z,5.60
2023-04-04T16:48:09.077Z,5.60
2023-04-04T16:52:12.190Z,10.50
2023-04-04T16:56:16.083Z,4.50
2023-04-04T17:00:20.027Z,42.60
2023-04-04T17:04:23.165Z,41.20
2023-04-04T17:08:26.941Z,43.30
2023-04-04T17:12:29.974Z,38.80
2023-04-04T17:16:33.456Z,37.00
2023-04-04T17:20:38.202Z,24.60
2023-04-04T17:24:41.503Z,16.00
2023-04-04T17:28:44.646Z,23.80
2023-04-04T17:32:49.058Z,16.80
2023-04-04T17:36:53.083Z,70.90
2023-04-04T17:40:56.283Z,79.70
2023-04-04T17:44:59.964Z,85.00
2023-04-04T17:49:03.435Z,63.10
2023-04-04T17:53:07.460Z,70.40
2023-04-04T17:57:10.917Z,66.00
2023-04-04T18:01:14.112Z,46.10
2023-04-04T18:05:18.183Z,51.40
2023-04-04T18:09:22.755Z,43.20
2023-04-04T18:13:38.092Z,36.60
2023-04-04T18:17:48.078Z,32.70
2023-04-04T18:22:18.374Z,26.70
2023-04-04T18:26:40.543Z,13.30
2023-04-04T18:30:55.337Z,9.20
2023-04-04T18:34:59.122Z,10.60
2023-04-04T18:39:16.474Z,7.90
2023-04-04T18:48:01.695Z,20.40
2023-04-04T18:52:05.297Z,9.10
2023-04-04T18:56:09.854Z,10.30
2023-04-04T19:00:16.378Z,3.90
2023-04-04T19:08:29.630Z,6.00
2023-04-04T19:12:34.235Z,4.90
2023-04-04T19:16:38.008Z,9.20
2023-04-04T19:20:43.591Z,7.30
2023-04-04T19:24:46.827Z,10.80
2023-04-04T19:28:50.734Z,16.60
2023-04-04T19:32:54.520Z,16.40
2023-04-04T19:36:57.526Z,14.40
2023-04-04T19:41:04.772Z,15.00
2023-04-04T19:45:13.234Z,25.00
2023-04-04T19:49:41.987Z,27.70
2023-04-04T19:54:08.723Z,23.30
2023-04-04T19:58:42.756Z,24.40
2023-04-04T20:02:50.109Z,23.60
2023-04-04T20:06:59.044Z,24.20
2023-04-04T20:11:07.305Z,24.40
2023-04-04T20:15:38.330Z,22.90
2023-04-04T20:19:48.476Z,22.30
2023-04-04T20:23:58.563Z,25.60
2023-04-04T20:28:03.092Z,30.90
2023-04-04T20:32:45.959Z,20.40
2023-04-04T20:36:56.536Z,27.00
2023-04-04T20:41:14.984Z,31.90
2023-04-04T20:45:57.444Z,35.30
2023-04-04T20:50:17.564Z,19.50
2023-04-04T20:54:23.864Z,26.40
2023-04-04T20:58:29.482Z,33.30
2023-04-04T21:02:34.398Z,31.90
2023-04-04T21:06:40.140Z,22.10
2023-04-04T21:14:52.250Z,39.90
2023-04-04T21:19:00.484Z,35.20
2023-04-04T21:23:06.989Z,22.10
2023-04-04T21:27:34.036Z,28.70
2023-04-04T21:31:43.364Z,27.80
2023-04-04T21:35:50.717Z,20.80
2023-04-04T21:39:57.444Z,22.70
2023-04-04T21:44:06.771Z,36.40
2023-04-04T21:48:09.866Z,19.70
2023-04-04T21:52:13.117Z,27.60
2023-04-04T21:56:17.653Z,19.10
2023-04-04T22:00:20.970Z,26.50
2023-04-04T22:04:24.312Z,26.90
2023-04-04T22:08:27.877Z,25.90
2023-04-04T22:12:33.258Z,20.10
2023-04-04T22:16:39.635Z,23.60
2023-04-04T22:20:49.022Z,21.80
2023-04-04T22:24:52.286Z,18.10
2023-04-04T22:28:59.510Z,24.30
2023-04-04T22:33:05.233Z,20.40
2023-04-04T22:37:21.641Z,26.10
2023-04-04T22:41:29.467Z,26.00
2023-04-04T22:45:33.732Z,23.40
2023-04-04T22:49:48.426Z,24.50
2023-04-04T22:53:51.648Z,29.20
2023-04-04T22:57:54.886Z,23.10
2023-04-04T23:01:58.118Z,23.40
2023-04-04T23:06:01.350Z,29.00
2023-04-04T23:10:06.801Z,18.30
2023-04-04T23:14:14.755Z,25.90
2023-04-04T23:18:18.770Z,18.70
2023-04-04T23:22:22.154Z,23.90
2023-04-04T23:26:25.589Z,20.80
2023-04-04T23:30:29.118Z,24.20
2023-04-04T23:34:32.146Z,22.60
2023-04-04T23:38:35.935Z,20.30
2023-04-04T23:42:39.010Z,27.80
2023-04-04T23:46:42.060Z,26.40
2023-04-04T23:50:50.177Z,23.70
2023-04-04T23:54:53.145Z,18.00
2023-04-04T23:58:56.142Z,20.60
